Time;durP1;ratioP1;P1;durP2;ratioP2;P2;SDS_P1;SDS_P2;PMS_P1;PMS_P2;Temp;Humidity;BMP_temperature;BMP_pressure;BME280_temperature;BME280_humidity;BME280_pressure;Samples;Min_cycle;Max_cycle;Signal;HPM_P1;HPM_P2
2021/09/05 00:00:07;;;;;;;4.20;3.50;;;19.80;86.40;;;;;;5052871;28;20107;-75
2021/09/05 00:02:32;;;;;;;4.32;3.92;;;19.80;86.50;;;;;;5052623;28;20021;-75
2021/09/05 00:04:58;;;;;;;4.35;3.70;;;19.90;86.50;;;;;;5052589;28;20028;-75
2021/09/05 00:07:24;;;;;;;3.97;3.53;;;19.90;86.60;;;;;;5052836;28;20044;-75
2021/09/05 00:09:49;;;;;;;4.32;3.47;;;19.90;86.80;;;;;;5052916;28;20024;-75
2021/09/05 00:12:15;;;;;;;6.63;3.85;;;19.80;86.60;;;;;;5070980;28;20040;-75
2021/09/05 00:14:41;;;;;;;3.72;3.42;;;19.80;87.00;;;;;;5072673;28;20028;-75
2021/09/05 00:17:06;;;;;;;5.10;4.25;;;19.70;87.30;;;;;;5072709;28;20024;-75
2021/09/05 00:19:32;;;;;;;5.30;4.00;;;19.70;87.60;;;;;;5071378;28;20430;-75
2021/09/05 00:21:58;;;;;;;5.43;3.63;;;19.70;88.40;;;;;;5090941;28;20026;-75
2021/09/05 00:24:24;;;;;;;5.35;4.13;;;19.70;87.60;;;;;;5074616;28;20024;-74
2021/09/05 00:26:49;;;;;;;7.15;4.20;;;19.70;87.60;;;;;;5092451;28;20058;-75
2021/09/05 00:29:17;;;;;;;5.65;3.85;;;19.70;87.60;;;;;;5092622;28;20050;-75
2021/09/05 00:31:43;;;;;;;6.38;3.90;;;19.70;87.80;;;;;;5074534;28;20035;-74
2021/09/05 00:34:09;;;;;;;5.60;4.03;;;19.70;88.20;;;;;;5083171;28;20025;-75
2021/09/05 00:36:36;;;;;;;6.95;3.88;;;19.60;88.40;;;;;;5072477;28;20525;-75
2021/09/05 00:39:04;;;;;;;3.92;3.63;;;19.60;88.60;;;;;;5054425;28;20025;-75
2021/09/05 00:41:30;;;;;;;9.90;4.80;;;19.50;88.90;;;;;;5088366;28;20056;-75
2021/09/05 00:44:10;;;;;;;7.75;4.50;;;19.50;89.00;;;;;;5092748;28;20059;-75
2021/09/05 00:46:37;;;;;;;7.78;3.92;;;19.50;89.20;;;;;;5092402;28;20031;-78
2021/09/05 00:49:04;;;;;;;4.10;3.72;;;19.40;89.20;;;;;;5079212;28;20032;-78
2021/09/05 00:51:33;;;;;;;3.90;3.47;;;19.30;89.70;;;;;;5072371;28;20058;-77
2021/09/05 00:54:02;;;;;;;4.65;3.75;;;19.40;90.00;;;;;;5072527;28;20044;-77
2021/09/05 00:56:33;;;;;;;8.25;4.50;;;19.30;90.10;;;;;;5075653;28;20051;-77
2021/09/05 00:59:07;;;;;;;4.00;3.57;;;19.20;90.40;;;;;;5060444;28;20038;-78
2021/09/05 01:01:34;;;;;;;4.68;3.50;;;19.20;90.50;;;;;;5077712;28;20062;-78
2021/09/05 01:03:59;;;;;;;4.40;4.00;;;19.20;90.40;;;;;;5087140;28;20039;-77
2021/09/05 01:06:26;;;;;;;4.82;4.18;;;19.30;90.50;;;;;;5076549;28;20468;-78
2021/09/05 01:08:53;;;;;;;5.05;4.13;;;19.30;90.30;;;;;;5075821;28;20053;-78
2021/09/05 01:11:19;;;;;;;5.25;3.88;;;19.30;90.30;;;;;;5075614;28;20491;-78
2021/09/05 01:13:45;;;;;;;5.03;3.97;;;19.40;90.30;;;;;;5075413;28;20029;-78
2021/09/05 01:16:30;;;;;;;4.32;3.85;;;19.40;90.30;;;;;;5057792;28;20031;-78
2021/09/05 01:19:06;;;;;;;3.88;3.53;;;19.50;90.10;;;;;;5087834;28;20038;-78
2021/09/05 01:21:33;;;;;;;5.72;4.43;;;19.50;90.00;;;;;;5095789;28;20023;-78
2021/09/05 01:24:00;;;;;;;6.85;3.70;;;19.50;90.10;;;;;;5079479;28;20471;-78
2021/09/05 01:26:28;;;;;;;3.78;3.40;;;19.50;90.10;;;;;;5075553;28;20021;-78
2021/09/05 01:28:53;;;;;;;5.47;4.10;;;19.40;90.20;;;;;;5075411;28;20119;-78
2021/09/05 01:31:21;;;;;;;5.05;4.00;;;19.40;90.20;;;;;;5075411;28;20158;-78
2021/09/05 01:33:47;;;;;;;4.22;3.65;;;19.40;90.40;;;;;;5075333;28;20024;-78
2021/09/05 01:36:13;;;;;;;8.27;5.03;;;19.40;90.30;;;;;;5075605;28;20606;-78
2021/09/05 01:38:39;;;;;;;4.65;4.22;;;19.30;90.40;;;;;;5075372;28;20021;-78
2021/09/05 01:41:05;;;;;;;4.55;4.15;;;19.40;90.40;;;;;;5075104;28;20367;-77
2021/09/05 01:43:31;;;;;;;4.15;3.67;;;19.40;90.50;;;;;;5077937;28;20024;-78
2021/09/05 01:45:56;;;;;;;7.70;4.28;;;19.30;90.60;;;;;;5082476;28;20391;-78
2021/09/05 01:48:22;;;;;;;4.68;4.18;;;19.30;90.60;;;;;;5074875;28;20028;-78
2021/09/05 01:50:48;;;;;;;5.30;4.15;;;19.30;90.60;;;;;;5074240;28;20021;-78
2021/09/05 01:53:15;;;;;;;4.50;4.10;;;19.20;90.80;;;;;;5074166;28;20047;-78
2021/09/05 01:55:40;;;;;;;4.03;3.67;;;19.30;90.90;;;;;;5074310;28;20028;-78
2021/09/05 01:58:06;;;;;;;4.85;4.35;;;19.20;91.00;;;;;;5074183;28;20028;-77
2021/09/05 02:00:32;;;;;;;3.92;3.63;;;19.10;91.00;;;;;;5074101;28;20028;-78
2021/09/05 02:02:57;;;;;;;5.05;4.13;;;19.20;91.10;;;;;;5073399;28;20107;-75
2021/09/05 02:05:23;;;;;;;5.78;4.72;;;19.20;91.10;;;;;;5073946;28;20123;-75
2021/09/05 02:07:49;;;;;;;5.30;3.95;;;19.20;91.20;;;;;;5074179;28;20039;-76
2021/09/05 02:10:14;;;;;;;5.32;3.75;;;19.20;91.20;;;;;;5056405;28;20123;-75
2021/09/05 02:12:40;;;;;;;4.97;4.40;;;19.20;91.30;;;;;;5074466;28;20055;-75
2021/09/05 02:15:07;;;;;;;7.57;4.00;;;19.20;91.30;;;;;;5074241;28;20024;-75
2021/09/05 02:17:32;;;;;;;5.22;4.30;;;19.20;91.40;;;;;;5074351;28;20028;-76
2021/09/05 02:19:58;;;;;;;7.30;4.60;;;19.20;91.40;;;;;;5056206;28;20028;-73
2021/09/05 02:22:24;;;;;;;4.78;4.38;;;19.20;91.30;;;;;;5056320;28;20375;-72
2021/09/05 02:24:50;;;;;;;6.25;4.43;;;19.20;91.20;;;;;;5074011;28;20055;-73
2021/09/05 02:27:16;;;;;;;6.45;4.00;;;19.20;91.30;;;;;;5056298;28;20070;-73
2021/09/05 02:29:41;;;;;;;4.93;3.90;;;19.20;91.30;;;;;;5073970;28;20052;-73
2021/09/05 02:32:07;;;;;;;5.03;4.22;;;19.10;91.30;;;;;;5072962;28;20025;-73
2021/09/05 02:34:33;;;;;;;4.50;4.10;;;19.20;91.40;;;;;;5060090;28;20131;-73
2021/09/05 02:36:59;;;;;;;5.45;4.43;;;19.20;91.20;;;;;;5052617;28;20017;-73
2021/09/05 02:39:25;;;;;;;5.25;4.75;;;19.20;91.20;;;;;;5065818;28;20127;-73
2021/09/05 02:41:51;;;;;;;4.90;4.40;;;19.20;91.10;;;;;;5073672;28;20613;-73
2021/09/05 02:44:17;;;;;;;9.57;4.45;;;19.20;91.10;;;;;;5087878;28;20119;-73
2021/09/05 02:46:43;;;;;;;4.45;4.05;;;19.20;91.00;;;;;;5093360;28;20026;-73
2021/09/05 02:49:08;;;;;;;5.43;4.15;;;19.20;91.00;;;;;;5093235;28;20028;-73
2021/09/05 02:51:34;;;;;;;7.18;5.07;;;19.20;91.00;;;;;;5093491;28;20028;-73
2021/09/05 02:54:00;;;;;;;5.10;4.25;;;19.10;91.00;;;;;;5058992;28;20028;-72
2021/09/05 02:56:26;;;;;;;4.40;4.00;;;19.10;91.00;;;;;;5080361;28;20097;-72
2021/09/05 02:58:51;;;;;;;4.38;3.97;;;19.10;90.90;;;;;;5075658;28;20066;-73
2021/09/05 03:01:17;;;;;;;4.80;4.10;;;19.20;90.80;;;;;;5093776;28;21001;-73
2021/09/05 03:03:43;;;;;;;4.70;4.30;;;19.20;90.80;;;;;;5087894;28;20021;-73
2021/09/05 03:06:08;;;;;;;5.05;4.38;;;19.10;90.90;;;;;;5073456;28;20032;-73
2021/09/05 03:08:34;;;;;;;4.40;4.00;;;19.10;91.00;;;;;;5073106;28;20036;-75
2021/09/05 03:11:00;;;;;;;5.63;4.20;;;19.00;91.10;;;;;;5073327;28;20390;-75
2021/09/05 03:13:25;;;;;;;4.50;3.90;;;19.00;91.10;;;;;;5079937;28;20024;-75
2021/09/05 03:15:51;;;;;;;4.88;4.38;;;19.00;91.10;;;;;;5093483;28;20032;-75
2021/09/05 03:18:17;;;;;;;5.90;4.50;;;19.00;91.20;;;;;;5074719;28;20020;-75
2021/09/05 03:20:42;;;;;;;6.18;4.85;;;19.00;91.20;;;;;;5093324;28;20051;-75
2021/09/05 03:23:08;;;;;;;4.05;3.75;;;19.10;91.00;;;;;;5089346;28;20062;-75
2021/09/05 03:25:34;;;;;;;5.32;4.22;;;19.00;91.10;;;;;;5073169;28;20020;-73
2021/09/05 03:27:59;;;;;;;4.80;4.20;;;19.00;91.20;;;;;;5072905;28;20411;-73
2021/09/05 03:30:25;;;;;;;4.90;4.18;;;19.00;91.20;;;;;;5072848;28;20578;-73
2021/09/05 03:32:51;;;;;;;4.55;4.15;;;19.10;91.20;;;;;;5054941;28;20029;-73
2021/09/05 03:35:16;;;;;;;4.13;3.75;;;19.00;91.10;;;;;;5072853;28;20412;-73
2021/09/05 03:37:42;;;;;;;8.35;4.35;;;19.10;91.20;;;;;;5072793;28;20057;-73
2021/09/05 03:40:08;;;;;;;4.53;4.13;;;19.00;91.10;;;;;;5090232;28;20028;-73
2021/09/05 03:42:34;;;;;;;5.15;4.63;;;19.00;91.20;;;;;;5074805;28;20028;-73
2021/09/05 03:45:00;;;;;;;6.75;4.43;;;19.00;91.30;;;;;;5073093;28;20116;-73
2021/09/05 03:47:26;;;;;;;4.72;4.25;;;19.10;91.30;;;;;;5072803;28;20361;-73
2021/09/05 03:49:52;;;;;;;6.25;4.10;;;19.00;91.40;;;;;;5072591;28;20022;-72
2021/09/05 03:52:18;;;;;;;5.80;5.07;;;19.00;91.50;;;;;;5054772;28;20028;-73
2021/09/05 03:54:43;;;;;;;4.30;3.97;;;19.00;91.60;;;;;;5072718;28;20021;-73
2021/09/05 03:57:09;;;;;;;6.50;4.30;;;19.00;91.50;;;;;;5072710;28;20028;-73
2021/09/05 03:59:35;;;;;;;5.20;4.47;;;19.00;91.50;;;;;;5079036;28;20020;-73
2021/09/05 04:02:01;;;;;;;5.43;4.60;;;19.00;91.50;;;;;;5092662;28;20028;-73
2021/09/05 04:04:26;;;;;;;7.70;5.25;;;19.00;91.60;;;;;;5069074;28;20104;-73
2021/09/05 04:07:01;;;;;;;7.25;4.38;;;19.00;91.60;;;;;;5053824;28;20621;-73
2021/09/05 04:10:13;;;;;;;6.68;4.10;;;19.10;91.70;;;;;;5072463;28;20020;-75
2021/09/05 04:12:19;;;;;;;4.97;4.25;;;19.00;91.80;;;;;;5061329;28;20041;-75
2021/09/05 04:14:45;;;;;;;4.78;4.15;;;19.00;91.90;;;;;;5080406;28;20016;-75
2021/09/05 04:17:12;;;;;;;5.22;4.60;;;19.00;91.80;;;;;;5076560;28;20105;-75
2021/09/05 04:19:37;;;;;;;4.53;4.13;;;19.00;92.00;;;;;;5072415;28;20029;-75
2021/09/05 04:22:04;;;;;;;4.70;4.25;;;18.90;92.10;;;;;;5072434;28;20013;-75
2021/09/05 04:24:30;;;;;;;5.28;4.78;;;18.90;92.20;;;;;;5072622;28;20021;-75
2021/09/05 04:26:56;;;;;;;5.97;4.70;;;18.90;92.60;;;;;;5071141;28;20028;-75
2021/09/05 04:29:21;;;;;;;5.07;4.60;;;18.90;92.30;;;;;;5070799;28;20060;-75
2021/09/05 04:31:47;;;;;;;5.97;4.55;;;18.90;92.10;;;;;;5075969;28;20020;-75
2021/09/05 04:34:13;;;;;;;5.05;4.53;;;18.90;92.20;;;;;;5076215;28;20095;-75
2021/09/05 04:36:39;;;;;;;5.65;4.55;;;18.90;92.30;;;;;;5076302;28;20021;-75
2021/09/05 04:39:07;;;;;;;5.25;4.45;;;18.80;92.40;;;;;;5076315;28;20020;-75
2021/09/05 04:41:33;;;;;;;5.28;4.70;;;18.80;92.40;;;;;;5076045;28;20114;-75
2021/09/05 04:43:59;;;;;;;5.05;4.47;;;18.80;92.50;;;;;;5076231;28;20479;-75
2021/09/05 04:46:24;;;;;;;7.80;5.00;;;18.80;92.40;;;;;;5076111;28;20090;-75
2021/09/05 04:48:50;;;;;;;5.13;4.63;;;18.80;92.40;;;;;;5076190;28;20093;-75
2021/09/05 04:51:16;;;;;;;5.47;4.65;;;18.80;92.50;;;;;;5075909;28;20021;-75
2021/09/05 04:53:42;;;;;;;4.93;4.40;;;18.80;92.50;;;;;;5075978;28;20059;-75
2021/09/05 04:56:07;;;;;;;6.10;4.60;;;18.70;92.60;;;;;;5075923;28;20021;-75
2021/09/05 04:58:33;;;;;;;5.43;4.47;;;18.80;92.60;;;;;;5075879;28;20029;-75
2021/09/05 05:00:59;;;;;;;6.22;5.05;;;18.80;92.60;;;;;;5075446;28;20119;-75
2021/09/05 05:03:24;;;;;;;4.65;4.25;;;18.70;92.60;;;;;;5075300;28;20020;-75
2021/09/05 05:05:50;;;;;;;5.40;4.90;;;18.80;92.70;;;;;;5075851;28;20040;-75
2021/09/05 05:08:16;;;;;;;5.82;4.70;;;18.70;92.70;;;;;;5075625;28;20021;-75
2021/09/05 05:10:44;;;;;;;4.68;4.18;;;18.80;92.70;;;;;;5075535;28;20403;-75
2021/09/05 05:13:10;;;;;;;5.82;4.95;;;18.70;92.70;;;;;;5075495;28;20056;-75
2021/09/05 05:15:36;;;;;;;4.80;4.40;;;18.70;92.80;;;;;;5075755;28;20464;-75
2021/09/05 05:18:02;;;;;;;5.82;4.60;;;18.70;92.80;;;;;;5094297;28;20036;-75
2021/09/05 05:20:29;;;;;;;5.05;4.57;;;18.70;92.90;;;;;;5095644;28;20482;-73
2021/09/05 05:22:55;;;;;;;7.35;4.95;;;18.70;92.80;;;;;;5095878;28;20064;-73
2021/09/05 05:25:21;;;;;;;6.78;4.53;;;18.80;92.80;;;;;;5077477;28;20115;-73
2021/09/05 05:27:47;;;;;;;5.38;4.57;;;18.80;92.70;;;;;;5077305;28;20138;-73
2021/09/05 05:30:12;;;;;;;4.82;4.43;;;18.90;92.30;;;;;;5095454;28;20371;-73
2021/09/05 05:32:38;;;;;;;7.40;4.70;;;19.00;92.10;;;;;;5093237;28;20443;-72
2021/09/05 05:35:05;;;;;;;9.77;5.35;;;19.10;91.70;;;;;;5074958;28;20082;-73
2021/09/05 05:37:30;;;;;;;7.20;4.85;;;19.20;91.70;;;;;;5057135;28;20024;-73
2021/09/05 05:39:56;;;;;;;6.90;4.90;;;19.20;91.70;;;;;;5057026;28;20503;-73
2021/09/05 05:42:22;;;;;;;6.75;4.45;;;19.20;91.60;;;;;;5074523;28;20467;-73
2021/09/05 05:44:48;;;;;;;4.80;4.15;;;19.30;91.50;;;;;;5074986;28;20426;-73
2021/09/05 05:47:13;;;;;;;7.07;4.55;;;19.30;91.40;;;;;;5075084;28;20013;-75
2021/09/05 05:49:43;;;;;;;7.60;4.18;;;19.30;91.30;;;;;;5074879;28;20025;-75
2021/09/05 05:52:09;;;;;;;4.82;4.32;;;19.40;91.30;;;;;;5066731;28;20051;-75
2021/09/05 05:54:34;;;;;;;5.43;4.85;;;19.40;91.30;;;;;;5095057;28;20535;-75
2021/09/05 05:57:00;;;;;;;6.38;4.13;;;19.40;91.20;;;;;;5076822;28;20020;-75
2021/09/05 05:59:26;;;;;;;4.90;4.28;;;19.50;91.40;;;;;;5095030;28;20028;-75
2021/09/05 06:01:51;;;;;;;4.65;4.20;;;19.50;91.30;;;;;;5094894;28;20027;-75
2021/09/05 06:04:17;;;;;;;4.82;4.40;;;19.50;91.40;;;;;;5055947;28;20017;-75
2021/09/05 06:06:43;;;;;;;5.47;4.15;;;19.50;91.20;;;;;;5036777;28;20032;-73
2021/09/05 06:09:08;;;;;;;4.60;4.20;;;19.60;91.10;;;;;;5072072;28;20024;-73
2021/09/05 06:11:34;;;;;;;9.68;4.63;;;19.60;91.00;;;;;;5094582;28;20039;-73
2021/09/05 06:14:00;;;;;;;4.63;4.07;;;19.70;90.90;;;;;;5094877;28;20153;-73
2021/09/05 06:16:28;;;;;;;4.70;4.07;;;19.70;90.90;;;;;;5076392;28;20437;-72
2021/09/05 06:18:54;;;;;;;6.55;4.55;;;19.70;90.90;;;;;;5074642;28;20376;-72
2021/09/05 06:21:20;;;;;;;7.20;4.35;;;19.80;90.90;;;;;;5094343;28;20035;-73
2021/09/05 06:23:45;;;;;;;5.82;4.25;;;19.90;91.00;;;;;;5094441;28;20032;-73
2021/09/05 06:26:11;;;;;;;7.00;4.28;;;19.90;91.00;;;;;;5094418;28;20031;-74
2021/09/05 06:28:37;;;;;;;4.13;3.75;;;19.90;91.10;;;;;;5093946;28;20037;-75
2021/09/05 06:31:02;;;;;;;8.05;4.82;;;20.00;91.20;;;;;;5094304;28;20057;-75
2021/09/05 06:33:28;;;;;;;5.15;4.25;;;20.10;91.30;;;;;;5090341;28;20024;-75
2021/09/05 06:35:54;;;;;;;4.53;4.10;;;20.10;91.30;;;;;;5056053;28;20031;-75
2021/09/05 06:38:19;;;;;;;5.35;4.35;;;20.20;91.30;;;;;;5077773;28;20031;-75
2021/09/05 06:40:45;;;;;;;4.72;3.97;;;20.20;91.80;;;;;;5073739;28;20029;-75
2021/09/05 06:43:11;;;;;;;5.95;4.00;;;20.20;91.30;;;;;;5073984;28;20025;-74
2021/09/05 06:45:37;;;;;;;5.03;3.88;;;20.30;91.30;;;;;;5073877;28;20187;-75
2021/09/05 06:48:03;;;;;;;6.05;4.70;;;20.30;91.30;;;;;;5073734;28;20506;-75
2021/09/05 06:50:29;;;;;;;4.10;3.80;;;20.40;91.50;;;;;;5073615;28;20641;-75
2021/09/05 06:52:54;;;;;;;4.70;4.30;;;20.40;91.30;;;;;;5072965;28;20028;-75
2021/09/05 06:55:20;;;;;;;4.57;4.05;;;20.50;91.60;;;;;;5073472;28;20017;-75
2021/09/05 06:57:46;;;;;;;4.20;3.78;;;20.50;91.80;;;;;;5072223;28;20036;-75
2021/09/05 07:00:12;;;;;;;5.18;4.50;;;20.60;91.60;;;;;;5073577;28;20660;-75
2021/09/05 07:02:38;;;;;;;6.30;4.53;;;20.60;91.10;;;;;;5073575;28;20020;-75
2021/09/05 07:05:05;;;;;;;4.70;4.30;;;20.70;91.10;;;;;;5039087;28;20392;-75
2021/09/05 07:07:30;;;;;;;6.97;3.60;;;20.80;90.70;;;;;;5035567;28;20021;-74
2021/09/05 07:09:56;;;;;;;5.30;4.05;;;20.80;90.70;;;;;;5053153;28;20028;-75
2021/09/05 07:12:22;;;;;;;4.40;4.00;;;20.80;90.20;;;;;;5053524;28;20036;-75
2021/09/05 07:14:48;;;;;;;4.38;3.97;;;20.90;90.20;;;;;;5053241;28;20025;-75
2021/09/05 07:17:13;;;;;;;6.30;4.70;;;20.90;90.90;;;;;;5053513;28;20032;-75
2021/09/05 07:19:40;;;;;;;8.20;4.65;;;20.90;91.10;;;;;;5053077;28;20031;-75
2021/09/05 07:22:06;;;;;;;6.47;5.00;;;21.00;90.50;;;;;;5053217;28;20155;-75
2021/09/05 07:24:31;;;;;;;8.50;4.85;;;21.10;89.80;;;;;;5053106;28;20515;-75
2021/09/05 07:26:57;;;;;;;6.00;4.15;;;21.20;88.80;;;;;;5053151;28;20014;-75
2021/09/05 07:29:23;;;;;;;6.60;4.68;;;21.20;89.30;;;;;;5034810;28;20519;-75
2021/09/05 07:31:49;;;;;;;8.93;5.03;;;21.30;88.50;;;;;;5052936;28;20104;-75
2021/09/05 07:34:15;;;;;;;4.38;3.97;;;21.30;88.90;;;;;;5063013;28;20035;-75
2021/09/05 07:36:41;;;;;;;4.43;4.03;;;21.30;89.70;;;;;;5072896;28;20460;-75
2021/09/05 07:39:08;;;;;;;5.78;4.80;;;21.40;89.30;;;;;;5072954;28;20024;-75
2021/09/05 07:41:34;;;;;;;9.45;4.78;;;21.40;89.20;;;;;;5072603;28;20017;-75
2021/09/05 07:44:00;;;;;;;6.43;4.40;;;21.40;90.10;;;;;;5074393;28;20043;-75
2021/09/05 07:46:26;;;;;;;4.90;4.50;;;21.40;91.00;;;;;;5092818;28;20383;-75
2021/09/05 07:48:51;;;;;;;5.10;4.32;;;21.40;91.10;;;;;;5090809;28;20078;-74
2021/09/05 07:51:18;;;;;;;8.07;4.30;;;21.40;91.20;;;;;;5073015;28;20115;-75
2021/09/05 07:53:43;;;;;;;7.35;4.35;;;21.40;91.40;;;;;;5056504;28;20040;-75
2021/09/05 07:56:10;;;;;;;5.03;4.35;;;21.50;90.80;;;;;;5072763;28;20021;-75
2021/09/05 07:58:36;;;;;;;5.25;4.75;;;21.60;90.90;;;;;;5054366;28;20028;-75
2021/09/05 08:01:02;;;;;;;6.45;4.75;;;21.70;89.50;;;;;;5079292;28;20032;-75
2021/09/05 08:03:27;;;;;;;5.93;4.35;;;21.70;89.20;;;;;;5072392;28;20027;-75
2021/09/05 08:05:53;;;;;;;8.93;4.50;;;21.70;90.00;;;;;;5072486;28;20077;-75
2021/09/05 08:08:19;;;;;;;5.55;4.97;;;21.90;87.80;;;;;;5072692;28;20051;-74
2021/09/05 08:10:45;;;;;;;6.30;4.55;;;22.00;88.20;;;;;;5070887;28;20025;-75
2021/09/05 08:13:10;;;;;;;3.92;3.60;;;22.00;88.10;;;;;;5061395;28;20511;-74
2021/09/05 08:15:36;;;;;;;7.40;4.35;;;22.10;89.40;;;;;;5060509;28;20029;-75
2021/09/05 08:18:02;;;;;;;4.63;4.20;;;22.20;88.40;;;;;;5074533;28;20103;-74
2021/09/05 08:20:28;;;;;;;5.75;4.68;;;22.20;88.40;;;;;;5072441;28;20116;-74
2021/09/05 08:22:54;;;;;;;5.43;4.25;;;22.20;87.60;;;;;;5074509;28;20108;-74
2021/09/05 08:25:19;;;;;;;9.10;4.20;;;22.20;88.80;;;;;;5070566;28;20056;-74
2021/09/05 08:27:45;;;;;;;9.23;4.55;;;22.30;86.90;;;;;;5068427;28;20676;-75
2021/09/05 08:30:11;;;;;;;6.53;4.30;;;22.40;86.50;;;;;;5070488;28;20039;-74
2021/09/05 08:32:37;;;;;;;11.02;4.63;;;22.40;87.20;;;;;;5074475;28;20020;-74
2021/09/05 08:35:04;;;;;;;9.35;4.20;;;22.30;89.40;;;;;;5061730;28;20376;-74
2021/09/05 08:37:30;;;;;;;5.90;4.95;;;22.40;87.00;;;;;;5074524;28;20039;-74
2021/09/05 08:39:56;;;;;;;6.05;4.30;;;22.40;86.70;;;;;;5070022;28;20028;-74
2021/09/05 08:42:22;;;;;;;6.22;5.15;;;22.40;86.90;;;;;;5069968;28;20074;-74
2021/09/05 08:44:48;;;;;;;7.32;4.65;;;22.50;88.00;;;;;;5070995;28;20021;-74
2021/09/05 08:47:14;;;;;;;6.13;5.13;;;22.60;88.20;;;;;;5070979;28;20066;-74
2021/09/05 08:49:42;;;;;;;7.88;5.00;;;22.70;86.70;;;;;;5072516;28;20029;-74
2021/09/05 08:52:08;;;;;;;8.73;4.40;;;22.70;88.30;;;;;;5059789;28;20498;-74
2021/09/05 08:54:34;;;;;;;4.80;3.92;;;22.80;88.00;;;;;;5070545;28;20024;-74
2021/09/05 08:57:01;;;;;;;9.65;4.18;;;22.80;88.40;;;;;;5059417;28;20021;-74
2021/09/05 08:59:27;;;;;;;7.40;4.38;;;22.70;89.90;;;;;;5069322;28;20467;-74
2021/09/05 09:01:54;;;;;;;6.15;4.82;;;22.80;87.00;;;;;;5072410;28;20070;-74
2021/09/05 09:04:20;;;;;;;4.82;4.32;;;22.80;86.30;;;;;;5081012;28;20104;-74
2021/09/05 09:06:50;;;;;;;5.35;4.72;;;22.80;87.90;;;;;;5082415;28;20009;-74
2021/09/05 09:09:18;;;;;;;8.35;4.75;;;22.80;88.90;;;;;;5080095;28;20025;-74
2021/09/05 09:11:50;;;;;;;5.22;4.72;;;22.80;88.70;;;;;;5072143;28;20452;-74
2021/09/05 09:14:16;;;;;;;5.05;4.30;;;22.80;89.30;;;;;;5071267;28;20025;-74
2021/09/05 09:16:45;;;;;;;4.65;3.95;;;23.00;87.40;;;;;;5063933;28;20260;-74
2021/09/05 09:19:28;;;;;;;5.50;4.47;;;23.00;87.60;;;;;;5066731;28;20179;-75
2021/09/05 09:21:55;;;;;;;6.00;4.35;;;23.10;87.10;;;;;;5062236;28;20081;-74
2021/09/05 09:24:22;;;;;;;9.00;4.72;;;23.30;87.20;;;;;;5065461;28;20502;-75
2021/09/05 09:27:05;;;;;;;6.25;4.97;;;23.30;85.20;;;;;;5058057;28;20457;-75
2021/09/05 09:29:36;;;;;;;4.32;3.85;;;23.50;83.00;;;;;;5071874;28;20131;-75
2021/09/05 09:32:07;;;;;;;7.10;4.80;;;23.60;83.20;;;;;;5056673;28;20094;-74
2021/09/05 09:34:46;;;;;;;5.45;4.28;;;23.60;84.00;;;;;;5073716;28;20023;-75
2021/09/05 09:37:14;;;;;;;5.03;3.55;;;23.80;80.30;;;;;;5073251;28;20020;-74
2021/09/05 09:39:58;;;;;;;4.88;4.13;;;23.80;81.20;;;;;;5073218;28;20043;-75
2021/09/05 09:42:36;;;;;;;5.35;4.22;;;24.00;79.30;;;;;;5074703;28;20013;-75
2021/09/05 09:45:16;;;;;;;8.73;4.18;;;23.80;79.80;;;;;;5074129;28;20056;-75
2021/09/05 09:47:49;;;;;;;4.07;3.78;;;23.80;80.50;;;;;;5073216;28;20047;-74
2021/09/05 09:50:17;;;;;;;4.72;3.67;;;24.00;80.80;;;;;;5073476;28;20040;-74
2021/09/05 09:52:46;;;;;;;4.35;3.95;;;24.00;77.80;;;;;;5076674;28;20234;-74
2021/09/05 09:55:13;;;;;;;3.85;3.53;;;24.00;80.80;;;;;;5056087;28;20062;-75
2021/09/05 09:57:39;;;;;;;4.32;3.97;;;24.00;76.60;;;;;;5074706;28;20025;-74
2021/09/05 10:00:06;;;;;;;5.28;4.07;;;24.00;76.70;;;;;;5058978;28;20118;-74
2021/09/05 10:02:37;;;;;;;4.13;3.78;;;24.00;75.80;;;;;;5054376;28;20029;-74
2021/09/05 10:05:04;;;;;;;5.90;3.63;;;23.90;77.20;;;;;;5064346;28;20037;-74
2021/09/05 10:07:30;;;;;;;6.78;3.72;;;23.90;78.10;;;;;;5065386;28;20033;-74
2021/09/05 10:09:59;;;;;;;4.15;3.75;;;24.00;76.50;;;;;;5080759;28;20029;-74
2021/09/05 10:12:25;;;;;;;3.75;3.45;;;24.00;77.30;;;;;;5080441;28;20032;-74
2021/09/05 10:14:53;;;;;;;3.33;3.00;;;24.10;77.80;;;;;;5072929;28;20016;-74
2021/09/05 10:17:23;;;;;;;4.28;3.85;;;24.30;78.10;;;;;;5072452;28;20028;-75
2021/09/05 10:19:52;;;;;;;4.63;4.20;;;24.40;77.30;;;;;;5072879;28;20025;-74
2021/09/05 10:22:20;;;;;;;3.78;3.47;;;24.50;74.00;;;;;;5074052;28;20027;-75
2021/09/05 10:24:51;;;;;;;4.18;3.83;;;24.50;73.40;;;;;;5073735;28;20074;-74
2021/09/05 10:27:30;;;;;;;4.63;4.13;;;24.50;75.50;;;;;;5051202;28;20021;-74
2021/09/05 10:30:08;;;;;;;4.57;3.47;;;24.60;73.10;;;;;;5073065;28;20131;-74
2021/09/05 10:32:47;;;;;;;11.85;3.80;;;24.70;72.10;;;;;;5064731;28;20100;-74
2021/09/05 10:35:25;;;;;;;3.90;3.60;;;24.70;72.40;;;;;;5051841;28;20464;-74
2021/09/05 10:38:14;;;;;;;5.18;4.22;;;24.80;72.70;;;;;;5035615;28;20498;-74
2021/09/05 10:40:54;;;;;;;4.20;3.80;;;24.70;72.40;;;;;;5078517;28;20039;-75
2021/09/05 10:43:21;;;;;;;3.45;3.17;;;24.80;72.60;;;;;;5073726;28;20021;-74
2021/09/05 10:45:55;;;;;;;4.30;3.90;;;24.80;73.90;;;;;;5068687;28;20407;-74
2021/09/05 10:48:38;;;;;;;4.22;3.83;;;25.00;74.20;;;;;;5052818;28;20021;-74
2021/09/05 10:51:16;;;;;;;3.78;3.47;;;25.00;74.20;;;;;;5052974;28;20036;-74
2021/09/05 10:53:59;;;;;;;10.27;3.80;;;25.10;69.90;;;;;;5073790;28;20044;-75
2021/09/05 10:56:43;;;;;;;5.65;4.05;;;25.10;69.10;;;;;;5069425;28;20021;-75
2021/09/05 10:59:11;;;;;;;4.45;4.03;;;25.20;71.50;;;;;;5066743;28;20480;-75
2021/09/05 11:01:38;;;;;;;6.32;3.95;;;25.30;72.40;;;;;;5070508;28;20017;-75
2021/09/05 11:04:19;;;;;;;3.67;3.38;;;25.30;71.10;;;;;;5068503;28;20078;-74
2021/09/05 11:06:52;;;;;;;6.00;3.70;;;25.30;69.70;;;;;;5072330;28;20027;-73
2021/09/05 11:09:24;;;;;;;6.32;3.80;;;25.30;69.30;;;;;;5072156;28;20028;-74
2021/09/05 11:12:07;;;;;;;4.75;3.97;;;25.20;68.70;;;;;;5068507;28;20074;-74
2021/09/05 11:14:35;;;;;;;4.13;3.83;;;25.20;72.90;;;;;;5056795;28;20033;-75
2021/09/05 11:17:07;;;;;;;5.05;3.85;;;25.20;71.50;;;;;;5073664;28;20111;-74
2021/09/05 11:19:42;;;;;;;5.13;4.28;;;25.20;73.10;;;;;;5065785;28;20032;-75
2021/09/05 11:22:16;;;;;;;3.88;3.50;;;25.30;73.00;;;;;;5083225;28;20028;-75
2021/09/05 11:24:43;;;;;;;5.35;4.00;;;25.20;71.10;;;;;;5069387;28;20028;-74
2021/09/05 11:27:11;;;;;;;6.18;3.97;;;25.20;72.40;;;;;;5067400;28;20032;-76
2021/09/05 11:29:38;;;;;;;4.32;3.90;;;25.20;70.10;;;;;;5072223;28;20504;-75
2021/09/05 11:32:06;;;;;;;3.97;3.67;;;25.20;69.20;;;;;;5073467;28;20020;-74
2021/09/05 11:34:35;;;;;;;5.32;4.05;;;25.20;70.10;;;;;;5072113;28;20024;-76
2021/09/05 11:37:02;;;;;;;5.45;3.78;;;25.30;69.10;;;;;;5061336;28;20452;-76
2021/09/05 11:39:30;;;;;;;4.80;3.80;;;25.40;69.90;;;;;;5067319;28;20025;-76
2021/09/05 11:41:58;;;;;;;4.60;4.10;;;25.40;68.30;;;;;;5069130;28;20036;-76
2021/09/05 11:44:32;;;;;;;6.10;4.38;;;25.40;69.30;;;;;;5051393;28;20029;-77
2021/09/05 11:47:08;;;;;;;6.10;3.80;;;25.60;68.10;;;;;;5066947;28;20025;-76
2021/09/05 11:49:35;;;;;;;4.00;3.60;;;25.70;69.40;;;;;;5072498;28;20078;-76
2021/09/05 11:52:00;;;;;;;5.75;4.05;;;25.70;70.00;;;;;;5072614;28;20020;-76
2021/09/05 11:54:26;;;;;;;4.25;3.47;;;25.80;66.10;;;;;;5067756;28;20032;-76
2021/09/05 11:56:52;;;;;;;3.50;3.20;;;25.70;65.60;;;;;;5070655;28;20639;-74
2021/09/05 11:59:18;;;;;;;4.20;3.60;;;25.70;67.00;;;;;;5065840;28;20017;-74
2021/09/05 12:01:52;;;;;;;4.10;3.70;;;25.80;68.40;;;;;;5072081;28;20099;-74
2021/09/05 12:04:18;;;;;;;5.03;3.85;;;25.80;67.30;;;;;;5069338;28;20009;-74
2021/09/05 12:06:44;;;;;;;4.72;4.32;;;25.90;66.60;;;;;;5083113;28;20024;-74
2021/09/05 12:09:11;;;;;;;4.28;3.88;;;26.10;69.30;;;;;;5066753;28;20025;-75
2021/09/05 12:11:57;;;;;;;5.32;4.10;;;26.20;67.20;;;;;;5072469;28;20063;-75
2021/09/05 12:14:33;;;;;;;4.15;3.75;;;26.30;64.80;;;;;;5069363;28;20086;-75
2021/09/05 12:17:16;;;;;;;4.20;3.85;;;26.40;68.10;;;;;;5063498;28;20037;-74
2021/09/05 12:20:07;;;;;;;4.50;3.40;;;26.40;68.20;;;;;;5071606;28;20029;-74
2021/09/05 12:22:50;;;;;;;4.72;3.65;;;26.50;67.80;;;;;;5052970;28;20029;-75
2021/09/05 12:25:20;;;;;;;5.40;3.63;;;26.50;66.80;;;;;;5071489;28;20027;-74
2021/09/05 12:28:07;;;;;;;4.47;4.07;;;26.60;67.00;;;;;;5071484;28;20480;-75
2021/09/05 12:30:38;;;;;;;4.43;3.85;;;26.60;62.90;;;;;;5072092;28;20078;-75
2021/09/05 12:33:08;;;;;;;4.83;3.80;;;26.60;62.70;;;;;;5072240;28;20034;-74
2021/09/05 12:35:36;;;;;;;4.35;3.95;;;26.50;63.60;;;;;;5073356;28;20063;-75
2021/09/05 12:38:31;;;;;;;3.67;3.40;;;26.30;64.60;;;;;;5072173;28;20029;-75
2021/09/05 12:41:13;;;;;;;9.30;4.32;;;26.20;65.70;;;;;;5062318;28;20044;-75
2021/09/05 12:43:41;;;;;;;4.97;4.22;;;26.30;64.30;;;;;;5051429;28;20048;-73
2021/09/05 12:46:07;;;;;;;3.92;3.55;;;26.50;64.20;;;;;;5070174;28;20539;-73
2021/09/05 12:48:38;;;;;;;3.75;3.45;;;26.50;63.20;;;;;;5061864;28;20103;-73